Time;durP1;ratioP1;P1;durP2;ratioP2;P2;SDS_P1;SDS_P2;PMS_P1;PMS_P2;Temp;Humidity;BMP_temperature;BMP_pressure;BME280_temperature;BME280_humidity;BME280_pressure;Samples;Min_cycle;Max_cycle;Signal;HPM_P1;HPM_P2
2021/01/26 00:00:57;;;;;;;19.50;9.38;;;2.40;99.90;;;;;;5033277;28;20460;-45
2021/01/26 00:03:23;;;;;;;21.73;9.32;;;2.40;99.90;;;;;;5034602;28;20151;-43
2021/01/26 00:05:49;;;;;;;20.88;10.43;;;2.40;99.90;;;;;;5034573;28;20025;-46
2021/01/26 00:08:15;;;;;;;17.13;8.30;;;2.40;99.90;;;;;;5049979;28;20049;-44
2021/01/26 00:10:40;;;;;;;22.75;10.00;;;2.40;99.90;;;;;;5049761;28;20469;-45
2021/01/26 00:13:07;;;;;;;25.98;9.57;;;2.40;99.90;;;;;;5034417;28;20056;-45
2021/01/26 00:15:33;;;;;;;27.55;10.82;;;2.40;99.90;;;;;;5032995;28;20033;-45
2021/01/26 00:17:59;;;;;;;26.10;11.00;;;2.50;99.90;;;;;;5034208;28;20036;-43
2021/01/26 00:20:25;;;;;;;25.48;12.40;;;2.40;99.90;;;;;;5034204;28;20380;-45
2021/01/26 00:22:52;;;;;;;27.63;12.00;;;2.50;99.90;;;;;;5034329;28;20017;-43
2021/01/26 00:25:23;;;;;;;28.25;12.07;;;2.50;99.90;;;;;;5033955;28;20060;-47
2021/01/26 00:27:48;;;;;;;24.63;11.38;;;2.50;99.90;;;;;;5032983;28;20025;-45
2021/01/26 00:30:18;;;;;;;22.85;11.27;;;2.50;99.90;;;;;;5032972;28;20072;-44
2021/01/26 00:32:43;;;;;;;19.20;9.80;;;2.50;99.90;;;;;;5034152;28;20038;-45
2021/01/26 00:35:11;;;;;;;21.17;9.32;;;2.50;99.90;;;;;;5034070;28;20120;-43
2021/01/26 00:37:36;;;;;;;26.23;11.02;;;2.40;99.90;;;;;;5033942;28;20029;-44
2021/01/26 00:40:03;;;;;;;21.45;9.38;;;2.40;99.90;;;;;;5049372;28;20026;-44
2021/01/26 00:42:29;;;;;;;20.10;8.10;;;2.40;99.90;;;;;;5033195;28;20029;-46
2021/01/26 00:44:54;;;;;;;24.25;10.70;;;2.30;99.90;;;;;;5033315;28;20029;-45
2021/01/26 00:47:20;;;;;;;20.42;9.27;;;2.30;99.90;;;;;;5034466;28;20029;-43
2021/01/26 00:49:46;;;;;;;20.90;8.75;;;2.30;99.90;;;;;;5034873;28;20040;-46
2021/01/26 00:52:11;;;;;;;18.27;8.52;;;2.30;99.90;;;;;;5034356;28;20059;-47
2021/01/26 00:54:37;;;;;;;16.45;8.65;;;2.30;99.90;;;;;;5049835;28;20191;-43
2021/01/26 00:57:04;;;;;;;20.00;8.80;;;2.30;99.90;;;;;;5034370;28;20049;-44
2021/01/26 00:59:30;;;;;;;16.08;8.05;;;2.30;99.90;;;;;;5033249;28;20366;-46
2021/01/26 01:01:55;;;;;;;14.38;7.10;;;2.30;99.90;;;;;;5034332;28;20037;-45
2021/01/26 01:04:21;;;;;;;12.40;6.07;;;2.20;99.90;;;;;;5034327;28;20018;-44
2021/01/26 01:06:47;;;;;;;14.05;5.75;;;2.20;99.90;;;;;;5034203;28;20121;-43
2021/01/26 01:09:12;;;;;;;14.85;7.53;;;2.20;99.90;;;;;;5034337;28;20549;-44
2021/01/26 01:11:38;;;;;;;14.32;6.93;;;2.20;99.90;;;;;;5033990;28;20492;-47
2021/01/26 01:14:04;;;;;;;13.82;7.35;;;2.20;99.90;;;;;;5033132;28;20022;-43
2021/01/26 01:16:30;;;;;;;16.27;7.65;;;2.20;99.90;;;;;;5034128;28;20429;-45
2021/01/26 01:18:55;;;;;;;12.95;6.50;;;2.20;99.90;;;;;;5033948;28;20076;-44
2021/01/26 01:21:21;;;;;;;15.10;6.90;;;2.10;99.90;;;;;;5033940;28;20052;-43
2021/01/26 01:23:46;;;;;;;14.93;7.57;;;2.10;99.90;;;;;;5033988;28;20025;-45
2021/01/26 01:26:12;;;;;;;17.80;8.27;;;2.10;99.90;;;;;;5033598;28;20028;-46
2021/01/26 01:28:38;;;;;;;19.38;8.55;;;2.10;99.90;;;;;;5033618;28;20071;-44
2021/01/26 01:31:03;;;;;;;20.40;9.32;;;2.10;99.90;;;;;;5032593;28;20029;-43
2021/01/26 01:33:29;;;;;;;14.93;8.13;;;2.10;99.90;;;;;;5033706;28;20029;-45
2021/01/26 01:35:54;;;;;;;23.23;9.75;;;2.10;99.90;;;;;;5033746;28;20082;-45
2021/01/26 01:38:20;;;;;;;20.67;10.95;;;2.10;99.90;;;;;;5033594;28;20049;-45
2021/01/26 01:40:46;;;;;;;20.02;9.07;;;2.10;99.90;;;;;;5033571;28;20061;-47
2021/01/26 01:43:11;;;;;;;27.10;11.18;;;2.10;99.90;;;;;;5033634;28;20072;-46
2021/01/26 01:45:37;;;;;;;22.17;9.93;;;2.00;99.90;;;;;;5032271;28;20554;-45
2021/01/26 01:48:11;;;;;;;25.77;11.27;;;2.00;99.90;;;;;;5033583;28;20052;-43
2021/01/26 01:50:50;;;;;;;22.00;10.10;;;2.00;99.90;;;;;;5032485;28;20024;-46
2021/01/26 01:53:24;;;;;;;27.08;11.55;;;2.00;99.90;;;;;;5033361;28;20559;-44
2021/01/26 01:55:55;;;;;;;30.23;14.10;;;2.00;99.90;;;;;;5033461;28;20025;-45
2021/01/26 01:58:28;;;;;;;28.80;13.05;;;1.90;99.90;;;;;;5033324;28;20033;-47
2021/01/26 02:01:01;;;;;;;26.80;12.30;;;1.90;99.90;;;;;;5032073;28;20026;-46
2021/01/26 02:03:31;;;;;;;33.92;14.07;;;1.90;99.90;;;;;;5033209;28;20064;-48
2021/01/26 02:06:00;;;;;;;28.65;13.07;;;1.90;99.90;;;;;;5031005;28;20026;-49
2021/01/26 02:08:39;;;;;;;30.75;13.63;;;1.80;99.90;;;;;;5033148;28;20029;-45
2021/01/26 02:11:04;;;;;;;36.28;14.15;;;1.80;99.90;;;;;;5033145;28;20099;-44
2021/01/26 02:13:30;;;;;;;28.80;14.05;;;1.80;99.90;;;;;;5033145;28;20096;-45
2021/01/26 02:16:00;;;;;;;36.85;15.15;;;1.80;99.90;;;;;;5031758;28;20029;-49
2021/01/26 02:18:51;;;;;;;32.75;14.43;;;1.70;99.90;;;;;;5032687;28;20076;-48
2021/01/26 02:21:34;;;;;;;40.13;15.85;;;1.70;99.90;;;;;;5032878;28;20049;-45
2021/01/26 02:24:40;;;;;;;31.65;14.73;;;1.70;99.90;;;;;;5031678;28;20414;-46
2021/01/26 02:27:37;;;;;;;34.38;14.70;;;1.70;99.90;;;;;;5031535;28;20535;-45
2021/01/26 02:30:03;;;;;;;;;;;1.70;99.90;;;;;;5032140;28;20388;-45
2021/01/26 02:32:56;;;;;;;25.47;10.57;;;1.70;99.90;;;;;;5032729;28;20032;-47
2021/01/26 02:35:49;;;;;;;24.05;11.27;;;1.70;99.90;;;;;;5032522;28;20029;-45
2021/01/26 02:38:48;;;;;;;25.35;11.15;;;1.70;99.90;;;;;;5032456;28;20029;-45
2021/01/26 02:41:22;;;;;;;28.15;13.13;;;1.70;99.90;;;;;;5032284;28;20029;-44
2021/01/26 02:44:15;;;;;;;32.20;14.20;;;1.60;99.90;;;;;;5032443;28;20036;-46
2021/01/26 02:46:47;;;;;;;34.22;14.85;;;1.60;99.90;;;;;;5032489;28;20065;-44
2021/01/26 02:49:44;;;;;;;38.47;15.50;;;1.60;99.90;;;;;;5032726;28;20036;-45
2021/01/26 02:52:26;;;;;;;36.70;15.48;;;1.60;99.90;;;;;;5032373;28;20076;-44
2021/01/26 02:55:03;;;;;;;34.22;14.27;;;1.60;99.90;;;;;;5032604;28;20041;-46
2021/01/26 02:57:54;;;;;;;33.47;14.48;;;1.60;99.90;;;;;;5032387;28;20041;-45
2021/01/26 03:00:25;;;;;;;27.73;12.15;;;1.60;99.90;;;;;;5031301;28;20492;-44
2021/01/26 03:03:00;;;;;;;31.60;14.70;;;1.60;99.90;;;;;;5034737;28;20018;-46
2021/01/26 03:05:51;;;;;;;32.00;16.00;;;1.60;99.90;;;;;;5036545;28;20029;-43
2021/01/26 03:08:25;;;;;;;35.03;14.82;;;1.60;99.90;;;;;;5036558;28;20036;-44
2021/01/26 03:11:09;;;;;;;31.88;14.05;;;1.60;99.90;;;;;;5036482;28;20025;-45
2021/01/26 03:13:38;;;;;;;38.58;16.08;;;1.50;99.90;;;;;;5036309;28;20033;-47
2021/01/26 03:16:11;;;;;;;37.22;15.23;;;1.50;99.90;;;;;;5035235;28;20384;-45
2021/01/26 03:18:50;;;;;;;34.65;15.27;;;1.50;99.90;;;;;;5036286;28;20026;-47
2021/01/26 03:21:18;;;;;;;36.38;15.27;;;1.50;99.90;;;;;;5036037;28;20064;-46
2021/01/26 03:24:03;;;;;;;32.75;16.10;;;1.50;99.90;;;;;;5036106;28;20044;-44
2021/01/26 03:26:28;;;;;;;34.28;16.10;;;1.50;99.90;;;;;;5036095;28;20017;-44
2021/01/26 03:29:00;;;;;;;35.05;16.92;;;1.40;99.90;;;;;;5034797;28;20103;-44
2021/01/26 03:31:31;;;;;;;41.70;15.52;;;1.50;99.90;;;;;;5035849;28;20033;-47
2021/01/26 03:33:57;;;;;;;34.55;15.07;;;1.40;99.90;;;;;;5036179;28;20412;-46
2021/01/26 03:36:23;;;;;;;35.67;16.13;;;1.40;99.90;;;;;;5035734;28;20030;-45
2021/01/26 03:38:51;;;;;;;31.35;15.43;;;1.40;99.90;;;;;;5035648;28;20037;-46
2021/01/26 03:41:17;;;;;;;32.28;15.88;;;1.40;99.90;;;;;;5035788;28;20018;-46
2021/01/26 03:43:42;;;;;;;38.20;16.17;;;1.30;99.90;;;;;;5036022;28;20068;-45
2021/01/26 03:46:27;;;;;;;27.02;13.77;;;1.20;99.90;;;;;;5034522;28;20025;-43
2021/01/26 03:49:14;;;;;;;36.88;14.30;;;1.10;99.90;;;;;;5035774;28;20025;-46
2021/01/26 03:52:01;;;;;;;35.90;15.85;;;1.00;99.90;;;;;;5035335;28;20567;-47
2021/01/26 03:54:46;;;;;;;30.17;14.07;;;0.90;99.90;;;;;;5035388;28;20063;-43
2021/01/26 03:57:23;;;;;;;32.22;15.27;;;0.70;99.90;;;;;;5035321;28;20035;-50
2021/01/26 04:00:22;;;;;;;23.27;12.07;;;0.60;99.90;;;;;;5032976;28;20064;-47
2021/01/26 04:03:10;;;;;;;35.75;15.50;;;0.50;99.90;;;;;;5035190;28;20510;-46
2021/01/26 04:05:42;;;;;;;35.72;15.07;;;0.40;99.90;;;;;;5035468;28;20025;-47
2021/01/26 04:08:17;;;;;;;27.02;13.60;;;0.20;99.90;;;;;;5035212;28;20025;-46
2021/01/26 04:10:56;;;;;;;35.53;14.93;;;0.00;99.90;;;;;;5035411;28;20040;-46
2021/01/26 04:13:28;;;;;;;30.92;14.88;;;-0.10;99.90;;;;;;5034399;28;20528;-45
2021/01/26 04:15:59;;;;;;;34.65;15.75;;;-0.30;99.90;;;;;;5033959;28;20048;-48
2021/01/26 04:18:29;;;;;;;30.23;14.82;;;-0.40;99.90;;;;;;5035189;28;20491;-44
2021/01/26 04:20:56;;;;;;;29.45;13.10;;;-0.50;99.90;;;;;;5035427;28;20346;-43
2021/01/26 04:23:23;;;;;;;31.80;15.07;;;-0.60;99.90;;;;;;5034972;28;20029;-46
2021/01/26 04:25:51;;;;;;;33.55;15.77;;;-0.70;99.90;;;;;;5035009;28;20413;-44
2021/01/26 04:28:31;;;;;;;35.55;15.55;;;-0.80;99.90;;;;;;5035015;28;20484;-44
2021/01/26 04:30:56;;;;;;;40.55;16.42;;;-0.90;99.90;;;;;;5033784;28;20420;-44
2021/01/26 04:33:22;;;;;;;38.85;15.98;;;-1.00;99.90;;;;;;5034932;28;20030;-45
2021/01/26 04:35:47;;;;;;;34.42;15.45;;;-1.00;99.90;;;;;;5034829;28;20439;-47
2021/01/26 04:38:13;;;;;;;41.25;17.42;;;-1.10;99.90;;;;;;5034434;28;20029;-44
2021/01/26 04:40:38;;;;;;;39.00;16.80;;;-1.10;99.90;;;;;;5034868;28;20113;-43
2021/01/26 04:43:28;;;;;;;40.65;17.20;;;-1.10;99.90;;;;;;5034687;28;20431;-45
2021/01/26 04:46:13;;;;;;;42.88;16.70;;;-1.10;99.90;;;;;;5033446;28;20033;-45
2021/01/26 04:48:49;;;;;;;42.35;18.90;;;-1.10;99.90;;;;;;5034451;28;20067;-47
2021/01/26 04:51:28;;;;;;;49.83;17.58;;;-1.30;99.90;;;;;;5034572;28;20030;-47
2021/01/26 04:54:18;;;;;;;40.08;15.15;;;-1.40;99.90;;;;;;5034167;28;20543;-44
2021/01/26 04:57:05;;;;;;;40.35;16.17;;;-1.40;99.90;;;;;;5034429;28;20441;-46
2021/01/26 04:59:58;;;;;;;43.28;17.13;;;-1.60;99.90;;;;;;5033286;28;20065;-45
2021/01/26 05:02:23;;;;;;;42.65;16.60;;;-1.60;99.90;;;;;;5034366;28;20018;-45
2021/01/26 05:04:58;;;;;;;45.38;18.20;;;-1.70;99.90;;;;;;5034303;28;20032;-46
2021/01/26 05:07:29;;;;;;;38.28;15.65;;;-1.80;99.90;;;;;;5034144;28;20531;-47
2021/01/26 05:10:13;;;;;;;45.28;17.15;;;-1.80;99.90;;;;;;5034327;28;20388;-43
2021/01/26 05:12:52;;;;;;;54.08;19.05;;;-1.80;99.90;;;;;;5034070;28;20033;-46
2021/01/26 05:15:22;;;;;;;44.88;16.65;;;-1.90;99.90;;;;;;5033190;28;20037;-45
2021/01/26 05:17:56;;;;;;;37.92;14.85;;;-1.90;99.90;;;;;;5033838;28;20080;-45
2021/01/26 05:20:28;;;;;;;43.80;17.20;;;-2.00;99.90;;;;;;5034127;28;20381;-43
2021/01/26 05:23:14;;;;;;;44.25;18.42;;;-2.00;99.90;;;;;;5033912;28;20396;-46
2021/01/26 05:25:40;;;;;;;44.50;18.38;;;-2.10;99.90;;;;;;5034027;28;20021;-50
2021/01/26 05:28:07;;;;;;;58.50;20.30;;;-2.10;99.90;;;;;;5033799;28;20041;-45
2021/01/26 05:30:35;;;;;;;48.58;18.20;;;-2.10;99.90;;;;;;5032562;28;20029;-48
2021/01/26 05:33:05;;;;;;;53.50;19.35;;;-2.10;99.90;;;;;;5032416;28;20057;-45
2021/01/26 05:35:31;;;;;;;44.78;15.80;;;-2.20;99.90;;;;;;5033840;28;20541;-45
2021/01/26 05:37:56;;;;;;;45.80;16.70;;;-2.20;99.90;;;;;;5033451;28;20112;-45
2021/01/26 05:40:36;;;;;;;52.13;17.95;;;-2.20;99.90;;;;;;5033644;28;20029;-47
2021/01/26 05:43:04;;;;;;;43.78;16.23;;;-2.20;99.90;;;;;;5033549;28;20045;-47
2021/01/26 05:45:38;;;;;;;50.30;19.02;;;-2.30;99.90;;;;;;5032351;28;20022;-49
2021/01/26 05:48:18;;;;;;;47.42;18.52;;;-2.30;99.90;;;;;;5033433;28;20029;-47
2021/01/26 05:50:44;;;;;;;42.65;15.77;;;-2.40;99.90;;;;;;5033506;28;20026;-44
2021/01/26 05:53:20;;;;;;;37.65;14.02;;;-2.40;99.90;;;;;;5033260;28;20411;-46
2021/01/26 05:55:58;;;;;;;;;;;-2.40;99.90;;;;;;5032573;28;20029;-43
2021/01/26 05:58:28;;;;;;;41.05;14.32;;;-2.50;99.90;;;;;;5033346;28;20351;-48
2021/01/26 06:00:59;;;;;;;38.10;14.45;;;-2.50;99.90;;;;;;5032273;28;20018;-45
2021/01/26 06:03:24;;;;;;;45.05;15.02;;;-2.50;99.90;;;;;;5033301;28;20108;-45
2021/01/26 06:06:14;;;;;;;41.25;14.98;;;-2.50;99.90;;;;;;5048316;28;20092;-46
2021/01/26 06:08:49;;;;;;;32.78;12.77;;;-2.50;99.90;;;;;;5033204;28;20095;-48
2021/01/26 06:11:29;;;;;;;40.70;14.98;;;-2.50;99.90;;;;;;5033134;28;20022;-48
2021/01/26 06:14:27;;;;;;;34.03;13.30;;;-2.50;99.90;;;;;;5032189;28;20500;-43
2021/01/26 06:17:06;;;;;;;37.47;14.25;;;-2.50;99.90;;;;;;4999390;28;20039;-45
2021/01/26 06:19:32;;;;;;;32.55;14.05;;;-2.50;99.90;;;;;;5032819;28;20036;-49
2021/01/26 06:21:58;;;;;;;37.20;14.10;;;-2.50;99.90;;;;;;5032893;28;20029;-44
2021/01/26 06:24:27;;;;;;;37.88;14.70;;;-2.60;99.90;;;;;;5032671;28;20032;-44
2021/01/26 06:27:20;;;;;;;35.72;14.13;;;-2.60;99.90;;;;;;5032755;28;20026;-44
2021/01/26 06:30:04;;;;;;;36.42;13.95;;;-2.60;99.90;;;;;;5031510;28;20036;-48
2021/01/26 06:32:39;;;;;;;33.70;13.60;;;-2.60;99.90;;;;;;5032779;28;20032;-46
2021/01/26 06:35:47;;;;;;;39.28;14.70;;;-2.60;99.90;;;;;;5032600;28;20072;-45
2021/01/26 06:38:28;;;;;;;32.03;12.18;;;-2.70;99.90;;;;;;5032059;28;20052;-44
2021/01/26 06:41:19;;;;;;;29.98;12.32;;;-2.70;99.90;;;;;;5032564;28;20037;-44
2021/01/26 06:44:18;;;;;;;31.80;12.15;;;-2.70;99.90;;;;;;5031701;28;20029;-47
2021/01/26 06:47:06;;;;;;;44.97;15.32;;;-2.70;99.90;;;;;;5032738;28;20030;-47
2021/01/26 06:50:08;;;;;;;37.67;14.57;;;-2.70;99.90;;;;;;5035782;28;20025;-45
2021/01/26 06:53:15;;;;;;;41.63;14.80;;;-2.70;99.90;;;;;;5032158;28;20038;-43
2021/01/26 06:55:59;;;;;;;36.08;14.10;;;-2.70;99.90;;;;;;5018843;28;20041;-45
2021/01/26 06:58:49;;;;;;;34.08;14.50;;;-2.70;99.90;;;;;;5032108;28;20033;-46
2021/01/26 07:01:33;;;;;;;40.90;14.30;;;-2.80;99.90;;;;;;5032018;28;20029;-46
2021/01/26 07:04:25;;;;;;;35.45;13.10;;;-2.80;99.90;;;;;;5032018;28;20477;-48
2021/01/26 07:06:58;;;;;;;40.45;15.00;;;-2.70;99.90;;;;;;5031898;28;20100;-48
2021/01/26 07:09:53;;;;;;;34.85;14.43;;;-2.70;99.90;;;;;;5031873;28;20523;-47
2021/01/26 07:12:28;;;;;;;26.17;11.38;;;-2.70;99.90;;;;;;5031749;28;20025;-45
2021/01/26 07:15:13;;;;;;;37.25;12.75;;;-2.70;99.90;;;;;;5031006;28;20033;-48
2021/01/26 07:18:22;;;;;;;29.83;12.32;;;-2.60;99.90;;;;;;5032193;28;20069;-44
2021/01/26 07:21:09;;;;;;;40.95;15.00;;;-2.50;99.90;;;;;;5032187;28;20400;-45
2021/01/26 07:23:47;;;;;;;38.70;13.95;;;-2.50;99.90;;;;;;5032041;28;20104;-42
2021/01/26 07:26:23;;;;;;;39.58;13.00;;;-2.40;99.90;;;;;;5031769;28;20589;-48
2021/01/26 07:29:17;;;;;;;38.05;14.02;;;-2.40;99.90;;;;;;5028497;28;20045;-43
2021/01/26 07:31:47;;;;;;;35.80;12.82;;;-2.30;99.90;;;;;;5031660;28;20030;-47
2021/01/26 07:34:36;;;;;;;47.03;15.50;;;-2.20;99.90;;;;;;5029758;28;20128;-46
2021/01/26 07:37:13;;;;;;;40.95;16.00;;;-2.20;99.90;;;;;;5031268;28;20040;-52
2021/01/26 07:40:07;;;;;;;39.63;14.63;;;-2.20;99.90;;;;;;5031709;28;20025;-44
2021/01/26 07:42:39;;;;;;;37.97;14.57;;;-2.10;99.90;;;;;;5031612;28;20129;-45
2021/01/26 07:45:28;;;;;;;36.92;15.55;;;-2.00;99.90;;;;;;5030675;28;20021;-49
2021/01/26 07:48:01;;;;;;;35.95;14.05;;;-2.00;99.90;;;;;;5031773;28;20504;-47
2021/01/26 07:50:39;;;;;;;37.35;14.20;;;-1.90;99.90;;;;;;5034652;28;20029;-50
2021/01/26 07:53:39;;;;;;;37.50;14.23;;;-1.80;99.90;;;;;;5035133;28;20471;-46
2021/01/26 07:56:37;;;;;;;30.80;12.63;;;-1.80;99.90;;;;;;5002809;28;20045;-45
2021/01/26 07:59:12;;;;;;;30.35;12.07;;;-1.80;99.90;;;;;;5034199;28;20041;-42
2021/01/26 08:01:43;;;;;;;32.67;14.23;;;-1.60;99.90;;;;;;5035211;28;20021;-46
2021/01/26 08:04:09;;;;;;;33.92;12.70;;;-1.50;99.90;;;;;;5035009;28;20341;-44
2021/01/26 08:06:39;;;;;;;40.67;15.93;;;-1.30;99.90;;;;;;5035282;28;20036;-45
2021/01/26 08:09:09;;;;;;;30.75;13.68;;;-1.10;99.90;;;;;;5034936;28;20469;-45
2021/01/26 08:11:36;;;;;;;29.00;11.68;;;-0.90;99.90;;;;;;5034890;28;20021;-46
2021/01/26 08:14:08;;;;;;;28.95;13.60;;;-0.70;99.90;;;;;;5032622;28;20112;-43
2021/01/26 08:16:36;;;;;;;32.97;14.27;;;-0.30;99.90;;;;;;5034994;28;20025;-48
2021/01/26 08:19:05;;;;;;;26.27;12.18;;;0.10;99.90;;;;;;5034775;28;20571;-46
2021/01/26 08:21:44;;;;;;;27.10;12.70;;;0.50;99.90;;;;;;5034951;28;20031;-45
2021/01/26 08:24:21;;;;;;;35.00;14.65;;;0.80;99.90;;;;;;5033416;28;20018;-47
2021/01/26 08:26:49;;;;;;;31.20;13.77;;;1.00;99.90;;;;;;5034371;28;20028;-45
2021/01/26 08:29:39;;;;;;;23.95;12.38;;;1.20;99.90;;;;;;5033354;28;20525;-44
2021/01/26 08:32:26;;;;;;;26.02;13.77;;;1.30;99.90;;;;;;5033229;28;20021;-44
2021/01/26 08:34:59;;;;;;;26.20;12.73;;;1.30;99.90;;;;;;5034773;28;20021;-42
2021/01/26 08:37:42;;;;;;;23.30;11.43;;;1.30;99.90;;;;;;5034323;28;20484;-47
2021/01/26 08:40:09;;;;;;;25.80;13.52;;;1.30;99.90;;;;;;5034342;28;20021;-44
2021/01/26 08:42:40;;;;;;;26.73;12.40;;;1.30;99.90;;;;;;5032930;28;20029;-44
2021/01/26 08:45:10;;;;;;;22.73;12.07;;;1.40;99.90;;;;;;5033356;28;20035;-46
2021/01/26 08:48:08;;;;;;;24.48;11.30;;;1.40;99.90;;;;;;5033229;28;20025;-47
2021/01/26 08:50:39;;;;;;;22.85;10.40;;;1.50;99.90;;;;;;5034219;28;20049;-46
2021/01/26 08:53:23;;;;;;;24.98;12.70;;;1.50;99.90;;;;;;5034113;28;20045;-46
2021/01/26 08:55:59;;;;;;;23.55;11.48;;;1.70;99.90;;;;;;5034376;28;20025;-46
2021/01/26 08:58:41;;;;;;;15.07;7.75;;;2.00;99.90;;;;;;5034157;28;20125;-43
2021/01/26 09:01:31;;;;;;;22.90;11.95;;;2.30;99.90;;;;;;5033615;28;20067;-42
2021/01/26 09:04:18;;;;;;;20.38;10.57;;;2.70;99.90;;;;;;5034144;28;20053;-50
2021/01/26 09:06:46;;;;;;;20.77;12.07;;;2.70;99.90;;;;;;5033966;28;20089;-43
2021/01/26 09:09:24;;;;;;;23.05;11.98;;;2.90;99.90;;;;;;5033902;28;20028;-48
2021/01/26 09:11:52;;;;;;;25.98;11.98;;;3.10;99.90;;;;;;5034164;28;20088;-45
2021/01/26 09:14:28;;;;;;;24.17;11.70;;;3.30;99.90;;;;;;5032811;28;20026;-44
2021/01/26 09:17:09;;;;;;;22.95;12.02;;;3.70;99.90;;;;;;5033780;28;20465;-43
2021/01/26 09:19:44;;;;;;;25.70;11.85;;;4.10;99.90;;;;;;5033678;28;20037;-44
2021/01/26 09:22:13;;;;;;;22.92;11.90;;;4.80;99.90;;;;;;5033489;28;20041;-45
2021/01/26 09:24:41;;;;;;;19.42;12.40;;;5.30;99.90;;;;;;5033826;28;20504;-43
2021/01/26 09:27:21;;;;;;;20.52;11.43;;;5.50;99.90;;;;;;5033680;28;20025;-45
2021/01/26 09:29:46;;;;;;;20.58;11.30;;;5.50;99.90;;;;;;5048158;28;20022;-43
2021/01/26 09:32:13;;;;;;;22.77;12.40;;;5.40;99.90;;;;;;5033498;28;20080;-46
2021/01/26 09:34:38;;;;;;;22.73;12.55;;;5.10;99.90;;;;;;5033657;28;20048;-45
2021/01/26 09:37:14;;;;;;;18.08;11.10;;;4.90;99.90;;;;;;5033451;28;20029;-43
2021/01/26 09:39:39;;;;;;;18.92;11.82;;;4.70;99.90;;;;;;5033706;28;20025;-46
2021/01/26 09:42:21;;;;;;;20.30;12.77;;;4.60;99.90;;;;;;5033611;28;20033;-46
2021/01/26 09:44:58;;;;;;;18.77;11.32;;;4.50;99.90;;;;;;5031087;28;20500;-44
2021/01/26 09:47:24;;;;;;;19.67;11.18;;;4.30;99.90;;;;;;5033395;28;20132;-44
2021/01/26 09:49:58;;;;;;;21.67;13.63;;;4.20;99.90;;;;;;5033448;28;20025;-46
2021/01/26 09:52:23;;;;;;;17.88;10.48;;;4.00;99.90;;;;;;5033068;28;20032;-47
2021/01/26 09:55:00;;;;;;;23.60;11.63;;;3.90;99.90;;;;;;5033419;28;20034;-50
2021/01/26 09:57:27;;;;;;;21.20;11.95;;;3.80;99.90;;;;;;5032868;28;20034;-42
2021/01/26 09:59:53;;;;;;;22.75;11.95;;;3.70;99.90;;;;;;5032273;28;20033;-46
2021/01/26 10:02:19;;;;;;;19.50;10.88;;;3.60;99.90;;;;;;5033083;28;20053;-44
2021/01/26 10:04:46;;;;;;;24.35;13.73;;;3.50;99.90;;;;;;5033282;28;20058;-42
2021/01/26 10:07:16;;;;;;;22.38;13.63;;;3.50;99.90;;;;;;5033047;28;20469;-45
2021/01/26 10:09:41;;;;;;;24.75;14.05;;;3.60;99.90;;;;;;5033117;28;20029;-42
2021/01/26 10:12:45;;;;;;;23.90;13.55;;;3.90;99.90;;;;;;5032186;28;20068;-46
2021/01/26 10:15:24;;;;;;;20.13;11.93;;;4.20;99.90;;;;;;4970778;28;20066;-49
2021/01/26 10:17:58;;;;;;;23.35;13.02;;;4.30;99.90;;;;;;5026942;28;20045;-44
2021/01/26 10:20:49;;;;;;;19.25;11.85;;;4.40;99.90;;;;;;5032667;28;20472;-45
2021/01/26 10:23:25;;;;;;;23.15;12.63;;;4.60;99.90;;;;;;5032701;28;20037;-46
2021/01/26 10:25:53;;;;;;;24.77;13.32;;;4.70;99.90;;;;;;5031744;28;20028;-45
2021/01/26 10:28:28;;;;;;;23.92;14.57;;;4.70;99.90;;;;;;5032737;28;20106;-46
2021/01/26 10:30:55;;;;;;;18.80;12.17;;;4.60;99.90;;;;;;5031717;28;20029;-45
2021/01/26 10:33:37;;;;;;;26.73;13.68;;;4.60;99.90;;;;;;5032653;28;20051;-46
2021/01/26 10:36:33;;;;;;;24.63;13.43;;;4.60;99.90;;;;;;5032439;28;20499;-46
2021/01/26 10:39:03;;;;;;;20.42;12.15;;;4.40;99.90;;;;;;5012907;28;20034;-46
2021/01/26 10:41:33;;;;;;;24.83;14.18;;;4.30;99.90;;;;;;5012716;28;20071;-44
2021/01/26 10:44:04;;;;;;;21.42;11.85;;;4.20;99.90;;;;;;5027268;28;20030;-44
2021/01/26 10:46:33;;;;;;;24.50;13.65;;;4.20;99.90;;;;;;5012677;28;20026;-46
2021/01/26 10:49:24;;;;;;;24.80;12.52;;;4.10;99.90;;;;;;5013181;28;20402;-46
2021/01/26 10:51:49;;;;;;;21.88;12.73;;;4.00;99.90;;;;;;5012319;28;20030;-48
2021/01/26 10:54:15;;;;;;;19.27;11.52;;;3.90;99.90;;;;;;5012396;28;20080;-44
2021/01/26 10:56:42;;;;;;;25.77;14.18;;;3.80;99.90;;;;;;5012751;28;20111;-44
2021/01/26 10:59:08;;;;;;;23.55;13.35;;;3.70;99.90;;;;;;5011818;28;20038;-45
2021/01/26 11:01:36;;;;;;;26.27;14.77;;;3.70;99.90;;;;;;5012236;28;20580;-46
2021/01/26 11:04:02;;;;;;;29.73;15.77;;;3.60;99.90;;;;;;5012485;28;20475;-44
2021/01/26 11:06:27;;;;;;;26.33;15.07;;;3.60;99.90;;;;;;5012431;28;20101;-48
2021/01/26 11:08:53;;;;;;;27.15;16.67;;;3.60;99.90;;;;;;5012690;28;20102;-43
2021/01/26 11:11:24;;;;;;;26.25;14.15;;;3.60;99.90;;;;;;5011206;28;20129;-45
2021/01/26 11:13:51;;;;;;;31.90;15.25;;;3.60;99.90;;;;;;5011694;28;20432;-43
2021/01/26 11:16:17;;;;;;;26.23;13.90;;;3.60;99.90;;;;;;5012245;28;20029;-45
2021/01/26 11:18:43;;;;;;;25.95;14.85;;;3.60;99.90;;;;;;5012250;28;20112;-44
2021/01/26 11:21:09;;;;;;;34.60;17.77;;;3.60;99.90;;;;;;5012604;28;20025;-44
2021/01/26 11:23:35;;;;;;;28.60;15.77;;;3.60;99.90;;;;;;5014422;28;20032;-44
2021/01/26 11:26:01;;;;;;;24.40;15.18;;;3.60;99.90;;;;;;5031640;28;20057;-42
2021/01/26 11:28:26;;;;;;;27.15;15.20;;;3.60;99.90;;;;;;5016425;28;20033;-42
2021/01/26 11:30:52;;;;;;;28.70;14.38;;;3.60;99.90;;;;;;5015328;28;20033;-48
2021/01/26 11:33:17;;;;;;;30.88;16.92;;;3.60;99.90;;;;;;5016347;28;20084;-45
2021/01/26 11:35:43;;;;;;;31.65;15.40;;;3.60;99.90;;;;;;5016252;28;20048;-42
2021/01/26 11:38:09;;;;;;;24.77;14.18;;;3.70;99.90;;;;;;5042730;28;20027;-44
2021/01/26 11:40:34;;;;;;;25.75;15.43;;;3.90;99.90;;;;;;5055796;28;20052;-43
2021/01/26 11:43:00;;;;;;;33.40;17.15;;;4.10;99.90;;;;;;5056000;28;20118;-46
2021/01/26 11:45:28;;;;;;;24.67;15.02;;;4.30;99.90;;;;;;5054700;28;20025;-43
2021/01/26 11:47:54;;;;;;;24.20;13.45;;;4.50;99.90;;;;;;5054629;28;20035;-43
2021/01/26 11:50:20;;;;;;;26.45;14.13;;;4.60;99.90;;;;;;5049380;28;20014;-45
2021/01/26 11:52:46;;;;;;;25.55;15.25;;;4.60;99.90;;;;;;5033825;28;20041;-45
2021/01/26 11:55:22;;;;;;;26.83;15.82;;;4.60;99.90;;;;;;5035073;28;20032;-45
2021/01/26 11:57:48;;;;;;;26.58;14.90;;;4.60;99.90;;;;;;5034394;28;20041;-43
2021/01/26 12:00:17;;;;;;;22.58;15.23;;;4.60;99.90;;;;;;5033925;28;20085;-44
2021/01/26 12:02:43;;;;;;;29.77;16.25;;;4.70;99.90;;;;;;5031000;28;20789;-46
2021/01/26 12:05:10;;;;;;;25.52;14.80;;;4.70;99.90;;;;;;5034421;28;20108;-45
2021/01/26 12:07:35;;;;;;;20.58;12.52;;;4.70;99.90;;;;;;5031094;28;20025;-44
2021/01/26 12:10:01;;;;;;;25.10;14.13;;;4.80;99.90;;;;;;5031825;28;20140;-44
2021/01/26 12:12:26;;;;;;;24.23;14.63;;;4.90;99.90;;;;;;5034042;28;20462;-46
2021/01/26 12:14:52;;;;;;;22.08;14.25;;;4.90;99.90;;;;;;5047956;28;20025;-46
2021/01/26 12:17:17;;;;;;;23.98;14.70;;;4.90;99.90;;;;;;5033000;28;20105;-46
2021/01/26 12:19:43;;;;;;;26.73;14.63;;;5.00;99.90;;;;;;5034313;28;20098;-46
2021/01/26 12:22:08;;;;;;;20.52;13.60;;;4.90;99.60;;;;;;5034336;28;20405;-42
2021/01/26 12:24:34;;;;;;;24.73;15.07;;;4.90;99.70;;;;;;5034249;28;20464;-44
2021/01/26 12:26:59;;;;;;;24.98;14.95;;;4.80;99.50;;;;;;5034307;28;20075;-42
2021/01/26 12:29:26;;;;;;;24.48;15.57;;;4.80;99.40;;;;;;5034092;28;20033;-44
2021/01/26 12:31:51;;;;;;;26.92;15.85;;;4.80;99.50;;;;;;5034890;28;20112;-45
2021/01/26 12:34:17;;;;;;;23.27;14.05;;;4.70;99.60;;;;;;5034481;28;20132;-46
2021/01/26 12:36:42;;;;;;;20.88;12.77;;;4.70;99.70;;;;;;5036469;28;20029;-42
2021/01/26 12:39:08;;;;;;;21.15;13.10;;;4.70;99.90;;;;;;5044822;28;20029;-42
2021/01/26 12:41:33;;;;;;;24.63;14.45;;;4.70;99.50;;;;;;5052035;28;20017;-45
2021/01/26 12:44:01;;;;;;;26.08;15.82;;;4.70;99.80;;;;;;5053484;28;20036;-45
2021/01/26 12:46:27;;;;;;;29.00;17.45;;;4.60;99.80;;;;;;5053840;28;20475;-47
2021/01/26 12:48:52;;;;;;;23.92;14.90;;;4.50;99.60;;;;;;5053954;28;20029;-48
2021/01/26 12:51:19;;;;;;;22.70;14.45;;;4.50;99.70;;;;;;5041921;28;20030;-46
2021/01/26 12:53:44;;;;;;;24.70;15.13;;;4.40;99.70;;;;;;5034092;28;20053;-45
2021/01/26 12:56:10;;;;;;;24.25;14.65;;;4.30;99.90;;;;;;5034243;28;20044;-43
2021/01/26 12:58:35;;;;;;;26.20;16.17;;;4.20;99.90;;;;;;5033260;28;20068;-43
2021/01/26 13:01:01;;;;;;;24.77;14.05;;;4.00;99.90;;;;;;5034096;28;20355;-48
2021/01/26 13:03:26;;;;;;;24.92;14.75;;;3.90;99.90;;;;;;5033970;28;20029;-45
2021/01/26 13:05:52;;;;;;;23.20;15.05;;;3.80;99.90;;;;;;5033970;28;20033;-44
2021/01/26 13:08:17;;;;;;;21.98;13.23;;;3.80;99.90;;;;;;5032774;28;20037;-43